KPUC/PUC METAR and TAF weather

Enter ICAO airport designator
Station Type Date Time Source
KPUC METAR 2022/01/23 11:53 UTC NOAA

KPUC 231153Z AUTO 00000KT 10SM CLR M05/M09 A3028 RMK AO2 SLP291 T10501089 10006 21061 55003


Station Type Date Time Source
KPUC Decoded METAR 2022/01/23 11:53 UTC NOAA

PRICE CARBON COUNTY AIRPORT, UT, United States (KPUC) 39-37N 110-45W 2091M
Jan 23, 2022 - 06:53 AM EST / 2022.01.23 1153 UTC
Wind: Calm:0
Visibility: 10 mile(s):0
Sky conditions: clear
Temperature: 23.0 F (-5.0 C)
Dew Point: 16.0 F (-8.9 C)
Relative Humidity: 74%
Pressure (altimeter): 30.28 in. Hg (1025 hPa)
Pressure tendency: 0.01 inches (0.3 hPa) lower than three hours ago
ob: KPUC 231153Z AUTO 00000KT 10SM CLR M05/M09 A3028 RMK AO2 SLP291 T10501089 10006 21061 55003
cycle: 12

Station Type Date Time Source
KPUC TAF UTC NOAA

Error!

Example: see airport list